sensor_id;sensor_type;location;lat;lon;timestamp;P1;durP1;ratioP1;P2;durP2;ratioP2
59042;SDS011;44826;51.596;5.624;2023-12-14T00:00:54;12.75;;;6.88;;
59042;SDS011;44826;51.596;5.624;2023-12-14T00:03:20;12.95;;;7.63;;
59042;SDS011;44826;51.596;5.624;2023-12-14T00:05:45;12.37;;;7.03;;
59042;SDS011;44826;51.596;5.624;2023-12-14T00:08:11;12.23;;;7.37;;
59042;SDS011;44826;51.596;5.624;2023-12-14T00:10:36;11.52;;;6.72;;
59042;SDS011;44826;51.596;5.624;2023-12-14T00:13:01;12.52;;;7.25;;
59042;SDS011;44826;51.596;5.624;2023-12-14T00:15:29;12.10;;;7.07;;
59042;SDS011;44826;51.596;5.624;2023-12-14T00:17:55;14.52;;;8.25;;
59042;SDS011;44826;51.596;5.624;2023-12-14T00:20:20;12.70;;;7.10;;
59042;SDS011;44826;51.596;5.624;2023-12-14T00:22:45;14.43;;;8.18;;
59042;SDS011;44826;51.596;5.624;2023-12-14T00:25:11;14.18;;;7.82;;
59042;SDS011;44826;51.596;5.624;2023-12-14T00:27:36;16.83;;;9.32;;
59042;SDS011;44826;51.596;5.624;2023-12-14T00:30:01;15.40;;;9.02;;
59042;SDS011;44826;51.596;5.624;2023-12-14T00:32:27;13.95;;;7.93;;
59042;SDS011;44826;51.596;5.624;2023-12-14T00:34:52;17.17;;;9.02;;
59042;SDS011;44826;51.596;5.624;2023-12-14T00:37:17;14.73;;;7.93;;
59042;SDS011;44826;51.596;5.624;2023-12-14T00:39:43;17.08;;;8.90;;
59042;SDS011;44826;51.596;5.624;2023-12-14T00:42:08;15.45;;;8.27;;
59042;SDS011;44826;51.596;5.624;2023-12-14T00:44:33;16.75;;;9.27;;
59042;SDS011;44826;51.596;5.624;2023-12-14T00:46:59;14.85;;;8.50;;
59042;SDS011;44826;51.596;5.624;2023-12-14T00:49:25;15.35;;;8.32;;
59042;SDS011;44826;51.596;5.624;2023-12-14T00:51:52;15.00;;;7.28;;
59042;SDS011;44826;51.596;5.624;2023-12-14T00:54:18;15.48;;;8.07;;
59042;SDS011;44826;51.596;5.624;2023-12-14T00:56:43;13.82;;;7.20;;
59042;SDS011;44826;51.596;5.624;2023-12-14T00:59:09;15.50;;;8.13;;
59042;SDS011;44826;51.596;5.624;2023-12-14T01:01:34;15.45;;;8.30;;
59042;SDS011;44826;51.596;5.624;2023-12-14T01:03:59;15.13;;;7.90;;
59042;SDS011;44826;51.596;5.624;2023-12-14T01:06:25;14.43;;;7.35;;
59042;SDS011;44826;51.596;5.624;2023-12-14T01:08:50;15.30;;;7.43;;
59042;SDS011;44826;51.596;5.624;2023-12-14T01:11:16;14.57;;;7.63;;
59042;SDS011;44826;51.596;5.624;2023-12-14T01:13:41;15.02;;;7.57;;
59042;SDS011;44826;51.596;5.624;2023-12-14T01:16:06;13.30;;;7.13;;
59042;SDS011;44826;51.596;5.624;2023-12-14T01:18:32;15.88;;;8.27;;
59042;SDS011;44826;51.596;5.624;2023-12-14T01:20:57;15.38;;;8.20;;
59042;SDS011;44826;51.596;5.624;2023-12-14T01:23:23;14.63;;;7.90;;
59042;SDS011;44826;51.596;5.624;2023-12-14T01:25:48;13.77;;;7.45;;
59042;SDS011;44826;51.596;5.624;2023-12-14T01:28:13;14.02;;;7.47;;
59042;SDS011;44826;51.596;5.624;2023-12-14T01:30:39;13.48;;;7.55;;
59042;SDS011;44826;51.596;5.624;2023-12-14T01:33:04;14.60;;;7.85;;
59042;SDS011;44826;51.596;5.624;2023-12-14T01:35:30;14.30;;;7.70;;
59042;SDS011;44826;51.596;5.624;2023-12-14T01:37:55;11.85;;;6.78;;
59042;SDS011;44826;51.596;5.624;2023-12-14T01:40:20;12.00;;;6.55;;
59042;SDS011;44826;51.596;5.624;2023-12-14T01:42:46;14.70;;;7.38;;
59042;SDS011;44826;51.596;5.624;2023-12-14T01:45:11;12.05;;;6.78;;
59042;SDS011;44826;51.596;5.624;2023-12-14T01:47:40;13.60;;;7.20;;
59042;SDS011;44826;51.596;5.624;2023-12-14T01:50:05;12.40;;;7.00;;
59042;SDS011;44826;51.596;5.624;2023-12-14T01:52:31;14.10;;;7.50;;
59042;SDS011;44826;51.596;5.624;2023-12-14T01:54:56;15.32;;;8.13;;
59042;SDS011;44826;51.596;5.624;2023-12-14T01:57:23;13.73;;;7.38;;
59042;SDS011;44826;51.596;5.624;2023-12-14T01:59:49;14.80;;;7.78;;
59042;SDS011;44826;51.596;5.624;2023-12-14T02:02:14;15.48;;;7.72;;
59042;SDS011;44826;51.596;5.624;2023-12-14T02:04:40;13.50;;;6.78;;
59042;SDS011;44826;51.596;5.624;2023-12-14T02:07:05;13.40;;;6.93;;
59042;SDS011;44826;51.596;5.624;2023-12-14T02:09:31;16.42;;;7.90;;
59042;SDS011;44826;51.596;5.624;2023-12-14T02:11:56;12.30;;;6.72;;
59042;SDS011;44826;51.596;5.624;2023-12-14T02:14:21;14.55;;;8.05;;
59042;SDS011;44826;51.596;5.624;2023-12-14T02:16:48;15.50;;;7.75;;
59042;SDS011;44826;51.596;5.624;2023-12-14T02:19:13;14.75;;;8.35;;
59042;SDS011;44826;51.596;5.624;2023-12-14T02:21:39;16.55;;;8.15;;
59042;SDS011;44826;51.596;5.624;2023-12-14T02:24:04;15.45;;;7.78;;
59042;SDS011;44826;51.596;5.624;2023-12-14T02:26:29;14.40;;;7.45;;
59042;SDS011;44826;51.596;5.624;2023-12-14T02:28:55;15.63;;;8.30;;
59042;SDS011;44826;51.596;5.624;2023-12-14T02:31:20;15.00;;;8.40;;
59042;SDS011;44826;51.596;5.624;2023-12-14T02:33:45;17.85;;;8.98;;
59042;SDS011;44826;51.596;5.624;2023-12-14T02:36:11;16.92;;;9.00;;
59042;SDS011;44826;51.596;5.624;2023-12-14T02:38:36;15.43;;;8.13;;
59042;SDS011;44826;51.596;5.624;2023-12-14T02:41:01;18.70;;;10.48;;
59042;SDS011;44826;51.596;5.624;2023-12-14T02:43:27;16.88;;;9.50;;
59042;SDS011;44826;51.596;5.624;2023-12-14T02:45:52;18.00;;;9.50;;
59042;SDS011;44826;51.596;5.624;2023-12-14T02:48:20;19.83;;;9.57;;
59042;SDS011;44826;51.596;5.624;2023-12-14T02:50:45;19.55;;;9.48;;
59042;SDS011;44826;51.596;5.624;2023-12-14T02:53:10;18.25;;;9.70;;
59042;SDS011;44826;51.596;5.624;2023-12-14T02:55:36;16.25;;;8.98;;
59042;SDS011;44826;51.596;5.624;2023-12-14T02:58:01;21.08;;;10.15;;
59042;SDS011;44826;51.596;5.624;2023-12-14T03:00:27;21.90;;;10.90;;
59042;SDS011;44826;51.596;5.624;2023-12-14T03:02:52;18.73;;;10.45;;
59042;SDS011;44826;51.596;5.624;2023-12-14T03:05:17;18.02;;;9.88;;
59042;SDS011;44826;51.596;5.624;2023-12-14T03:07:43;17.77;;;9.05;;
59042;SDS011;44826;51.596;5.624;2023-12-14T03:10:08;17.10;;;8.70;;
59042;SDS011;44826;51.596;5.624;2023-12-14T03:12:34;17.58;;;8.98;;
59042;SDS011;44826;51.596;5.624;2023-12-14T03:14:59;17.13;;;8.98;;
59042;SDS011;44826;51.596;5.624;2023-12-14T03:17:24;16.38;;;8.07;;
59042;SDS011;44826;51.596;5.624;2023-12-14T03:19:50;15.43;;;8.23;;
59042;SDS011;44826;51.596;5.624;2023-12-14T03:22:15;13.83;;;7.50;;
59042;SDS011;44826;51.596;5.624;2023-12-14T03:24:40;14.70;;;8.40;;
59042;SDS011;44826;51.596;5.624;2023-12-14T03:27:07;14.30;;;7.87;;
59042;SDS011;44826;51.596;5.624;2023-12-14T03:29:32;13.75;;;7.72;;
59042;SDS011;44826;51.596;5.624;2023-12-14T03:31:58;13.80;;;7.45;;
59042;SDS011;44826;51.596;5.624;2023-12-14T03:34:23;14.57;;;7.80;;
59042;SDS011;44826;51.596;5.624;2023-12-14T03:36:49;13.43;;;7.13;;
59042;SDS011;44826;51.596;5.624;2023-12-14T03:39:16;12.57;;;6.93;;
59042;SDS011;44826;51.596;5.624;2023-12-14T03:41:41;12.80;;;6.63;;
59042;SDS011;44826;51.596;5.624;2023-12-14T03:44:07;13.20;;;7.10;;
59042;SDS011;44826;51.596;5.624;2023-12-14T03:46:32;13.38;;;7.15;;
59042;SDS011;44826;51.596;5.624;2023-12-14T03:48:59;16.27;;;8.88;;
59042;SDS011;44826;51.596;5.624;2023-12-14T03:51:24;15.97;;;8.67;;
59042;SDS011;44826;51.596;5.624;2023-12-14T03:53:49;16.20;;;9.30;;
59042;SDS011;44826;51.596;5.624;2023-12-14T03:56:15;16.50;;;8.93;;
59042;SDS011;44826;51.596;5.624;2023-12-14T03:58:40;17.05;;;9.35;;
59042;SDS011;44826;51.596;5.624;2023-12-14T04:01:06;15.73;;;8.80;;
59042;SDS011;44826;51.596;5.624;2023-12-14T04:03:31;17.73;;;10.00;;
59042;SDS011;44826;51.596;5.624;2023-12-14T04:05:57;17.63;;;9.02;;
59042;SDS011;44826;51.596;5.624;2023-12-14T04:08:22;18.07;;;9.03;;
59042;SDS011;44826;51.596;5.624;2023-12-14T04:10:47;16.00;;;8.73;;
59042;SDS011;44826;51.596;5.624;2023-12-14T04:13:13;14.47;;;8.30;;
59042;SDS011;44826;51.596;5.624;2023-12-14T04:15:38;13.82;;;8.20;;
59042;SDS011;44826;51.596;5.624;2023-12-14T04:18:03;14.03;;;7.97;;
59042;SDS011;44826;51.596;5.624;2023-12-14T04:20:31;11.10;;;6.83;;
59042;SDS011;44826;51.596;5.624;2023-12-14T04:22:56;12.77;;;7.32;;
59042;SDS011;44826;51.596;5.624;2023-12-14T04:25:22;12.47;;;6.80;;
59042;SDS011;44826;51.596;5.624;2023-12-14T04:27:47;11.83;;;6.70;;
59042;SDS011;44826;51.596;5.624;2023-12-14T04:30:12;12.27;;;7.60;;
59042;SDS011;44826;51.596;5.624;2023-12-14T04:32:38;12.52;;;7.20;;
59042;SDS011;44826;51.596;5.624;2023-12-14T04:35:04;11.90;;;7.18;;
59042;SDS011;44826;51.596;5.624;2023-12-14T04:37:30;13.00;;;7.30;;
59042;SDS011;44826;51.596;5.624;2023-12-14T04:39:56;14.02;;;7.90;;
59042;SDS011;44826;51.596;5.624;2023-12-14T04:42:22;12.75;;;6.97;;
59042;SDS011;44826;51.596;5.624;2023-12-14T04:44:47;14.20;;;7.95;;
59042;SDS011;44826;51.596;5.624;2023-12-14T04:47:12;12.63;;;6.90;;
59042;SDS011;44826;51.596;5.624;2023-12-14T04:49:38;12.90;;;7.13;;
59042;SDS011;44826;51.596;5.624;2023-12-14T04:52:03;11.40;;;6.80;;
59042;SDS011;44826;51.596;5.624;2023-12-14T04:54:29;11.20;;;6.47;;
59042;SDS011;44826;51.596;5.624;2023-12-14T04:56:54;12.43;;;6.90;;
59042;SDS011;44826;51.596;5.624;2023-12-14T04:59:20;11.45;;;6.80;;
59042;SDS011;44826;51.596;5.624;2023-12-14T05:01:45;11.50;;;6.82;;
59042;SDS011;44826;51.596;5.624;2023-12-14T05:04:10;12.52;;;7.15;;
59042;SDS011;44826;51.596;5.624;2023-12-14T05:06:36;13.23;;;7.50;;
59042;SDS011;44826;51.596;5.624;2023-12-14T05:09:03;12.37;;;6.97;;
59042;SDS011;44826;51.596;5.624;2023-12-14T05:11:30;11.60;;;7.00;;
59042;SDS011;44826;51.596;5.624;2023-12-14T05:13:56;12.10;;;7.28;;
59042;SDS011;44826;51.596;5.624;2023-12-14T05:16:22;10.88;;;6.07;;
59042;SDS011;44826;51.596;5.624;2023-12-14T05:18:51;12.97;;;7.00;;
59042;SDS011;44826;51.596;5.624;2023-12-14T05:21:17;12.13;;;7.03;;
59042;SDS011;44826;51.596;5.624;2023-12-14T05:23:42;11.60;;;6.80;;
59042;SDS011;44826;51.596;5.624;2023-12-14T05:26:08;11.90;;;7.03;;
59042;SDS011;44826;51.596;5.624;2023-12-14T05:28:33;11.77;;;7.07;;
59042;SDS011;44826;51.596;5.624;2023-12-14T05:31:00;12.85;;;7.97;;
59042;SDS011;44826;51.596;5.624;2023-12-14T05:33:25;12.10;;;6.95;;
59042;SDS011;44826;51.596;5.624;2023-12-14T05:35:50;13.35;;;7.43;;
59042;SDS011;44826;51.596;5.624;2023-12-14T05:38:16;12.25;;;7.22;;
59042;SDS011;44826;51.596;5.624;2023-12-14T05:40:41;12.50;;;7.17;;
59042;SDS011;44826;51.596;5.624;2023-12-14T05:43:07;11.75;;;6.57;;
59042;SDS011;44826;51.596;5.624;2023-12-14T05:45:32;13.17;;;7.93;;
59042;SDS011;44826;51.596;5.624;2023-12-14T05:47:58;12.93;;;7.90;;
59042;SDS011;44826;51.596;5.624;2023-12-14T05:50:23;12.57;;;7.43;;
59042;SDS011;44826;51.596;5.624;2023-12-14T05:52:48;12.97;;;7.40;;
59042;SDS011;44826;51.596;5.624;2023-12-14T05:55:14;13.47;;;7.63;;
59042;SDS011;44826;51.596;5.624;2023-12-14T05:57:39;13.37;;;7.83;;
59042;SDS011;44826;51.596;5.624;2023-12-14T06:00:05;13.00;;;7.73;;
59042;SDS011;44826;51.596;5.624;2023-12-14T06:02:32;13.50;;;7.83;;
59042;SDS011;44826;51.596;5.624;2023-12-14T06:04:58;12.27;;;7.20;;
59042;SDS011;44826;51.596;5.624;2023-12-14T06:07:23;14.57;;;8.17;;
59042;SDS011;44826;51.596;5.624;2023-12-14T06:09:49;12.30;;;7.67;;
59042;SDS011;44826;51.596;5.624;2023-12-14T06:12:14;11.53;;;7.10;;
59042;SDS011;44826;51.596;5.624;2023-12-14T06:14:40;13.25;;;7.80;;
59042;SDS011;44826;51.596;5.624;2023-12-14T06:17:05;13.30;;;8.03;;
59042;SDS011;44826;51.596;5.624;2023-12-14T06:19:31;15.32;;;8.05;;
59042;SDS011;44826;51.596;5.624;2023-12-14T06:21:57;15.37;;;8.30;;
59042;SDS011;44826;51.596;5.624;2023-12-14T06:24:22;13.95;;;8.07;;
59042;SDS011;44826;51.596;5.624;2023-12-14T06:26:48;12.93;;;7.67;;
59042;SDS011;44826;51.596;5.624;2023-12-14T06:29:13;13.23;;;8.00;;
59042;SDS011;44826;51.596;5.624;2023-12-14T06:31:38;13.85;;;8.38;;
59042;SDS011;44826;51.596;5.624;2023-12-14T06:34:04;12.55;;;7.45;;
59042;SDS011;44826;51.596;5.624;2023-12-14T06:36:30;14.27;;;7.95;;
59042;SDS011;44826;51.596;5.624;2023-12-14T06:38:57;11.85;;;7.30;;
59042;SDS011;44826;51.596;5.624;2023-12-14T06:41:23;13.00;;;7.35;;
59042;SDS011;44826;51.596;5.624;2023-12-14T06:43:49;11.90;;;7.10;;
59042;SDS011;44826;51.596;5.624;2023-12-14T06:46:15;12.45;;;7.43;;
59042;SDS011;44826;51.596;5.624;2023-12-14T06:48:41;11.85;;;6.95;;
59042;SDS011;44826;51.596;5.624;2023-12-14T06:51:07;12.55;;;7.60;;
59042;SDS011;44826;51.596;5.624;2023-12-14T06:53:32;12.85;;;7.45;;
59042;SDS011;44826;51.596;5.624;2023-12-14T06:55:58;13.90;;;8.40;;
59042;SDS011;44826;51.596;5.624;2023-12-14T06:58:24;12.43;;;7.13;;
59042;SDS011;44826;51.596;5.624;2023-12-14T07:00:49;11.98;;;7.25;;
59042;SDS011;44826;51.596;5.624;2023-12-14T07:03:14;13.85;;;7.38;;
59042;SDS011;44826;51.596;5.624;2023-12-14T07:05:40;12.30;;;7.45;;
59042;SDS011;44826;51.596;5.624;2023-12-14T07:08:06;13.38;;;7.22;;
59042;SDS011;44826;51.596;5.624;2023-12-14T07:10:31;12.80;;;7.38;;
59042;SDS011;44826;51.596;5.624;2023-12-14T07:12:57;13.20;;;7.70;;
59042;SDS011;44826;51.596;5.624;2023-12-14T07:15:22;11.52;;;7.15;;
59042;SDS011;44826;51.596;5.624;2023-12-14T07:17:47;12.80;;;7.68;;
59042;SDS011;44826;51.596;5.624;2023-12-14T07:20:13;11.80;;;6.95;;
59042;SDS011;44826;51.596;5.624;2023-12-14T07:22:38;13.43;;;7.32;;
59042;SDS011;44826;51.596;5.624;2023-12-14T07:25:04;13.38;;;7.28;;
59042;SDS011;44826;51.596;5.624;2023-12-14T07:27:29;13.25;;;7.50;;
59042;SDS011;44826;51.596;5.624;2023-12-14T07:29:55;11.95;;;7.15;;
59042;SDS011;44826;51.596;5.624;2023-12-14T07:32:20;12.63;;;7.28;;
59042;SDS011;44826;51.596;5.624;2023-12-14T07:34:46;11.00;;;6.85;;
59042;SDS011;44826;51.596;5.624;2023-12-14T07:37:11;11.60;;;6.45;;
59042;SDS011;44826;51.596;5.624;2023-12-14T07:39:37;12.07;;;6.88;;
59042;SDS011;44826;51.596;5.624;2023-12-14T07:42:02;11.43;;;7.03;;
59042;SDS011;44826;51.596;5.624;2023-12-14T07:44:28;13.10;;;7.53;;
59042;SDS011;44826;51.596;5.624;2023-12-14T07:46:55;12.98;;;7.53;;
59042;SDS011;44826;51.596;5.624;2023-12-14T07:49:21;12.60;;;7.13;;
59042;SDS011;44826;51.596;5.624;2023-12-14T07:51:48;11.15;;;6.22;;
59042;SDS011;44826;51.596;5.624;2023-12-14T07:54:13;11.38;;;6.90;;
59042;SDS011;44826;51.596;5.624;2023-12-14T07:56:39;12.52;;;6.30;;
59042;SDS011;44826;51.596;5.624;2023-12-14T07:59:04;12.15;;;6.25;;
59042;SDS011;44826;51.596;5.624;2023-12-14T08:01:32;11.32;;;6.88;;
59042;SDS011;44826;51.596;5.624;2023-12-14T08:03:58;10.60;;;6.18;;
59042;SDS011;44826;51.596;5.624;2023-12-14T08:06:23;11.98;;;6.53;;
59042;SDS011;44826;51.596;5.624;2023-12-14T08:08:48;12.55;;;6.40;;
59042;SDS011;44826;51.596;5.624;2023-12-14T08:11:14;9.63;;;5.53;;
59042;SDS011;44826;51.596;5.624;2023-12-14T08:13:39;11.05;;;6.38;;
59042;SDS011;44826;51.596;5.624;2023-12-14T08:16:05;10.15;;;6.13;;
59042;SDS011;44826;51.596;5.624;2023-12-14T08:18:31;14.48;;;7.20;;
59042;SDS011;44826;51.596;5.624;2023-12-14T08:20:57;10.95;;;6.25;;
59042;SDS011;44826;51.596;5.624;2023-12-14T08:23:22;11.10;;;6.50;;
59042;SDS011;44826;51.596;5.624;2023-12-14T08:25:48;9.75;;;5.85;;
59042;SDS011;44826;51.596;5.624;2023-12-14T08:28:13;11.35;;;5.68;;
59042;SDS011;44826;51.596;5.624;2023-12-14T08:30:39;10.77;;;5.90;;
59042;SDS011;44826;51.596;5.624;2023-12-14T08:33:04;9.73;;;5.75;;
59042;SDS011;44826;51.596;5.624;2023-12-14T08:35:30;10.82;;;5.80;;
59042;SDS011;44826;51.596;5.624;2023-12-14T08:37:55;9.38;;;5.78;;
59042;SDS011;44826;51.596;5.624;2023-12-14T08:40:21;10.38;;;5.53;;
59042;SDS011;44826;51.596;5.624;2023-12-14T08:42:46;9.60;;;5.43;;
59042;SDS011;44826;51.596;5.624;2023-12-14T08:45:12;9.48;;;5.53;;
59042;SDS011;44826;51.596;5.624;2023-12-14T08:47:38;9.05;;;5.63;;
59042;SDS011;44826;51.596;5.624;2023-12-14T08:50:04;9.77;;;5.47;;
59042;SDS011;44826;51.596;5.624;2023-12-14T08:52:30;9.27;;;5.60;;
59042;SDS011;44826;51.596;5.624;2023-12-14T08:54:55;9.88;;;5.25;;
59042;SDS011;44826;51.596;5.624;2023-12-14T08:57:20;9.40;;;5.20;;
59042;SDS011;44826;51.596;5.624;2023-12-14T08:59:46;9.18;;;5.38;;
59042;SDS011;44826;51.596;5.624;2023-12-14T09:02:11;11.00;;;5.80;;
59042;SDS011;44826;51.596;5.624;2023-12-14T09:04:37;8.95;;;5.47;;
59042;SDS011;44826;51.596;5.624;2023-12-14T09:07:02;10.25;;;5.32;;
59042;SDS011;44826;51.596;5.624;2023-12-14T09:09:29;9.73;;;4.90;;
59042;SDS011;44826;51.596;5.624;2023-12-14T09:11:54;10.15;;;5.43;;
59042;SDS011;44826;51.596;5.624;2023-12-14T09:14:19;9.00;;;5.15;;
59042;SDS011;44826;51.596;5.624;2023-12-14T09:16:45;9.38;;;5.13;;
59042;SDS011;44826;51.596;5.624;2023-12-14T09:19:11;8.98;;;5.10;;
59042;SDS011;44826;51.596;5.624;2023-12-14T09:21:36;9.87;;;5.77;;
59042;SDS011;44826;51.596;5.624;2023-12-14T09:24:01;8.57;;;5.20;;
59042;SDS011;44826;51.596;5.624;2023-12-14T09:26:27;11.65;;;5.53;;
59042;SDS011;44826;51.596;5.624;2023-12-14T09:28:52;9.80;;;5.60;;
59042;SDS011;44826;51.596;5.624;2023-12-14T09:31:17;9.73;;;5.43;;
59042;SDS011;44826;51.596;5.624;2023-12-14T09:33:43;9.38;;;4.97;;
59042;SDS011;44826;51.596;5.624;2023-12-14T09:36:08;8.77;;;5.17;;
59042;SDS011;44826;51.596;5.624;2023-12-14T09:38:33;8.50;;;4.95;;
59042;SDS011;44826;51.596;5.624;2023-12-14T09:40:59;8.60;;;5.10;;
59042;SDS011;44826;51.596;5.624;2023-12-14T09:43:25;9.75;;;5.10;;
59042;SDS011;44826;51.596;5.624;2023-12-14T09:45:50;9.20;;;5.30;;
59042;SDS011;44826;51.596;5.624;2023-12-14T09:48:16;8.80;;;5.20;;
59042;SDS011;44826;51.596;5.624;2023-12-14T09:50:42;9.13;;;5.30;;
59042;SDS011;44826;51.596;5.624;2023-12-14T09:53:08;8.80;;;5.43;;
59042;SDS011;44826;51.596;5.624;2023-12-14T09:55:34;8.30;;;5.50;;
59042;SDS011;44826;51.596;5.624;2023-12-14T09:57:59;10.03;;;5.60;;
59042;SDS011;44826;51.596;5.624;2023-12-14T10:00:37;9.07;;;4.82;;
59042;SDS011;44826;51.596;5.624;2023-12-14T10:03:17;9.95;;;5.18;;
59042;SDS011;44826;51.596;5.624;2023-12-14T10:06:00;9.55;;;5.00;;
59042;SDS011;44826;51.596;5.624;2023-12-14T10:08:26;9.00;;;4.97;;
59042;SDS011;44826;51.596;5.624;2023-12-14T10:10:53;10.45;;;5.60;;
59042;SDS011;44826;51.596;5.624;2023-12-14T10:13:21;9.17;;;5.50;;
59042;SDS011;44826;51.596;5.624;2023-12-14T10:16:00;9.23;;;5.17;;
59042;SDS011;44826;51.596;5.624;2023-12-14T10:18:25;9.10;;;5.27;;
59042;SDS011;44826;51.596;5.624;2023-12-14T10:20:51;11.40;;;5.33;;
59042;SDS011;44826;51.596;5.624;2023-12-14T10:23:16;9.10;;;5.47;;
59042;SDS011;44826;51.596;5.624;2023-12-14T10:25:42;10.15;;;5.70;;
59042;SDS011;44826;51.596;5.624;2023-12-14T10:28:08;9.47;;;5.30;;
59042;SDS011;44826;51.596;5.624;2023-12-14T10:30:37;9.80;;;5.60;;
59042;SDS011;44826;51.596;5.624;2023-12-14T10:33:03;9.43;;;5.43;;
59042;SDS011;44826;51.596;5.624;2023-12-14T10:35:33;9.48;;;5.50;;
59042;SDS011;44826;51.596;5.624;2023-12-14T10:38:01;9.77;;;5.50;;
59042;SDS011;44826;51.596;5.624;2023-12-14T10:40:29;9.80;;;5.75;;
59042;SDS011;44826;51.596;5.624;2023-12-14T10:42:56;10.03;;;5.77;;
59042;SDS011;44826;51.596;5.624;2023-12-14T10:45:25;8.87;;;5.40;;
59042;SDS011;44826;51.596;5.624;2023-12-14T10:47:54;9.00;;;5.10;;
59042;SDS011;44826;51.596;5.624;2023-12-14T10:50:21;8.38;;;5.43;;
59042;SDS011;44826;51.596;5.624;2023-12-14T10:52:47;9.57;;;5.23;;
59042;SDS011;44826;51.596;5.624;2023-12-14T10:55:58;8.07;;;4.93;;
59042;SDS011;44826;51.596;5.624;2023-12-14T10:58:09;7.83;;;4.67;;
59042;SDS011;44826;51.596;5.624;2023-12-14T11:00:35;7.90;;;4.63;;
59042;SDS011;44826;51.596;5.624;2023-12-14T11:03:04;9.25;;;5.30;;
59042;SDS011;44826;51.596;5.624;2023-12-14T11:05:32;9.30;;;4.93;;
59042;SDS011;44826;51.596;5.624;2023-12-14T11:08:05;9.97;;;5.20;;
59042;SDS011;44826;51.596;5.624;2023-12-14T11:13:10;10.07;;;5.63;;
59042;SDS011;44826;51.596;5.624;2023-12-14T11:15:40;9.50;;;6.03;;
59042;SDS011;44826;51.596;5.624;2023-12-14T11:25:57;9.80;;;5.40;;
59042;SDS011;44826;51.596;5.624;2023-12-14T11:28:31;9.37;;;5.33;;
59042;SDS011;44826;51.596;5.624;2023-12-14T11:30:57;9.40;;;5.40;;
59042;SDS011;44826;51.596;5.624;2023-12-14T11:33:23;10.53;;;5.60;;
59042;SDS011;44826;51.596;5.624;2023-12-14T11:35:50;8.37;;;5.03;;
59042;SDS011;44826;51.596;5.624;2023-12-14T11:38:17;10.30;;;5.73;;
59042;SDS011;44826;51.596;5.624;2023-12-14T11:40:45;8.88;;;5.30;;
59042;SDS011;44826;51.596;5.624;2023-12-14T11:43:11;9.40;;;4.95;;
59042;SDS011;44826;51.596;5.624;2023-12-14T11:45:37;10.10;;;5.93;;
59042;SDS011;44826;51.596;5.624;2023-12-14T11:48:04;9.35;;;5.35;;
59042;SDS011;44826;51.596;5.624;2023-12-14T11:50:32;9.25;;;5.63;;
59042;SDS011;44826;51.596;5.624;2023-12-14T11:53:01;9.65;;;5.53;;
59042;SDS011;44826;51.596;5.624;2023-12-14T11:55:30;9.40;;;5.45;;
59042;SDS011;44826;51.596;5.624;2023-12-14T11:57:57;10.18;;;5.43;;
59042;SDS011;44826;51.596;5.624;2023-12-14T12:00:28;8.23;;;5.20;;
59042;SDS011;44826;51.596;5.624;2023-12-14T12:03:08;9.65;;;5.22;;
59042;SDS011;44826;51.596;5.624;2023-12-14T12:05:37;8.75;;;4.95;;
59042;SDS011;44826;51.596;5.624;2023-12-14T12:08:03;8.23;;;5.05;;
59042;SDS011;44826;51.596;5.624;2023-12-14T12:10:29;10.07;;;5.65;;
59042;SDS011;44826;51.596;5.624;2023-12-14T12:13:04;9.30;;;5.32;;
59042;SDS011;44826;51.596;5.624;2023-12-14T12:15:32;8.55;;;5.10;;
59042;SDS011;44826;51.596;5.624;2023-12-14T12:18:00;9.75;;;5.50;;
59042;SDS011;44826;51.596;5.624;2023-12-14T12:20:39;9.50;;;5.38;;
59042;SDS011;44826;51.596;5.624;2023-12-14T12:23:13;9.57;;;5.68;;
59042;SDS011;44826;51.596;5.624;2023-12-14T12:25:41;8.18;;;4.70;;
59042;SDS011;44826;51.596;5.624;2023-12-14T12:28:06;8.93;;;5.32;;
59042;SDS011;44826;51.596;5.624;2023-12-14T12:30:32;8.82;;;5.30;;
59042;SDS011;44826;51.596;5.624;2023-12-14T12:32:57;8.55;;;5.40;;
59042;SDS011;44826;51.596;5.624;2023-12-14T12:35:23;8.82;;;5.47;;
59042;SDS011;44826;51.596;5.624;2023-12-14T12:37:50;9.32;;;5.47;;
59042;SDS011;44826;51.596;5.624;2023-12-14T12:40:21;8.52;;;5.00;;
59042;SDS011;44826;51.596;5.624;2023-12-14T12:42:47;8.68;;;5.18;;
59042;SDS011;44826;51.596;5.624;2023-12-14T12:45:14;8.63;;;5.60;;
59042;SDS011;44826;51.596;5.624;2023-12-14T12:47:44;8.98;;;5.82;;
59042;SDS011;44826;51.596;5.624;2023-12-14T12:50:09;10.10;;;5.50;;
59042;SDS011;44826;51.596;5.624;2023-12-14T12:52:35;10.40;;;5.38;;
59042;SDS011;44826;51.596;5.624;2023-12-14T12:55:01;8.57;;;5.22;;
59042;SDS011;44826;51.596;5.624;2023-12-14T12:57:27;9.23;;;5.43;;
59042;SDS011;44826;51.596;5.624;2023-12-14T12:59:54;10.65;;;5.88;;
59042;SDS011;44826;51.596;5.624;2023-12-14T13:02:19;10.10;;;5.65;;
59042;SDS011;44826;51.596;5.624;2023-12-14T13:04:45;10.30;;;6.45;;
59042;SDS011;44826;51.596;5.624;2023-12-14T13:07:11;10.10;;;6.40;;
59042;SDS011;44826;51.596;5.624;2023-12-14T13:09:37;9.93;;;6.05;;
59042;SDS011;44826;51.596;5.624;2023-12-14T13:12:02;10.30;;;6.45;;
59042;SDS011;44826;51.596;5.624;2023-12-14T13:14:29;11.07;;;6.18;;
59042;SDS011;44826;51.596;5.624;2023-12-14T13:16:54;9.25;;;5.60;;
59042;SDS011;44826;51.596;5.624;2023-12-14T13:19:19;9.48;;;5.72;;
59042;SDS011;44826;51.596;5.624;2023-12-14T13:21:45;9.70;;;5.80;;
59042;SDS011;44826;51.596;5.624;2023-12-14T13:24:10;8.68;;;5.13;;
59042;SDS011;44826;51.596;5.624;2023-12-14T13:26:36;9.93;;;5.93;;
59042;SDS011;44826;51.596;5.624;2023-12-14T13:29:01;8.85;;;5.63;;
59042;SDS011;44826;51.596;5.624;2023-12-14T13:31:28;8.07;;;5.13;;
59042;SDS011;44826;51.596;5.624;2023-12-14T13:33:53;7.95;;;4.90;;
59042;SDS011;44826;51.596;5.624;2023-12-14T13:36:18;8.10;;;5.18;;
59042;SDS011;44826;51.596;5.624;2023-12-14T13:38:44;7.65;;;4.72;;
59042;SDS011;44826;51.596;5.624;2023-12-14T13:41:10;8.18;;;5.40;;
59042;SDS011;44826;51.596;5.624;2023-12-14T13:43:35;7.07;;;4.68;;
59042;SDS011;44826;51.596;5.624;2023-12-14T13:46:01;9.43;;;5.32;;
59042;SDS011;44826;51.596;5.624;2023-12-14T13:48:27;8.45;;;5.53;;
59042;SDS011;44826;51.596;5.624;2023-12-14T13:50:53;8.77;;;5.55;;
59042;SDS011;44826;51.596;5.624;2023-12-14T13:53:18;8.98;;;5.25;;
59042;SDS011;44826;51.596;5.624;2023-12-14T13:55:44;8.48;;;5.18;;
59042;SDS011;44826;51.596;5.624;2023-12-14T13:58:10;8.65;;;5.45;;
59042;SDS011;44826;51.596;5.624;2023-12-14T14:00:35;10.07;;;5.75;;
59042;SDS011;44826;51.596;5.624;2023-12-14T14:03:01;9.85;;;5.40;;
59042;SDS011;44826;51.596;5.624;2023-12-14T14:05:28;8.85;;;4.90;;
59042;SDS011;44826;51.596;5.624;2023-12-14T14:07:54;8.73;;;5.65;;
59042;SDS011;44826;51.596;5.624;2023-12-14T14:10:19;8.73;;;5.43;;
59042;SDS011;44826;51.596;5.624;2023-12-14T14:12:45;9.00;;;4.90;;
59042;SDS011;44826;51.596;5.624;2023-12-14T14:15:11;9.75;;;5.50;;
59042;SDS011;44826;51.596;5.624;2023-12-14T14:17:37;10.30;;;5.55;;
59042;SDS011;44826;51.596;5.624;2023-12-14T14:20:02;8.90;;;5.70;;
59042;SDS011;44826;51.596;5.624;2023-12-14T14:22:29;9.18;;;5.35;;
59042;SDS011;44826;51.596;5.624;2023-12-14T14:24:55;8.52;;;5.47;;
59042;SDS011;44826;51.596;5.624;2023-12-14T14:27:21;9.57;;;5.53;;
59042;SDS011;44826;51.596;5.624;2023-12-14T14:29:46;9.25;;;5.28;;
59042;SDS011;44826;51.596;5.624;2023-12-14T14:32:11;8.02;;;5.25;;
59042;SDS011;44826;51.596;5.624;2023-12-14T14:34:37;8.38;;;5.30;;
59042;SDS011;44826;51.596;5.624;2023-12-14T14:37:02;8.93;;;5.25;;
59042;SDS011;44826;51.596;5.624;2023-12-14T14:39:28;8.27;;;4.90;;
59042;SDS011;44826;51.596;5.624;2023-12-14T14:41:53;7.30;;;4.65;;